Time;durP1;ratioP1;P1;durP2;ratioP2;P2;SDS_P1;SDS_P2;PMS_P1;PMS_P2;Temp;Humidity;BMP_temperature;BMP_pressure;BME280_temperature;BME280_humidity;BME280_pressure;Samples;Min_cycle;Max_cycle;Signal;HPM_P1;HPM_P2
2022/07/21 00:00:24;;;;;;;6.47;3.88;;;;;;;19.58;100.00;96029.25;1038539;28;20049;-72
2022/07/21 00:00:55;;;;;;;11.85;4.68;;;;;;;19.53;100.00;96040.84;1033855;28;20145;-71
2022/07/21 00:01:25;;;;;;;6.82;3.95;;;;;;;19.46;100.00;96059.94;1033898;28;20060;-71
2022/07/21 00:01:56;;;;;;;4.90;4.28;;;;;;;19.42;100.00;96080.28;1038428;28;20471;-70
2022/07/21 00:02:26;;;;;;;6.82;4.72;;;;;;;19.34;100.00;96081.03;1034368;28;20101;-71
2022/07/21 00:03:01;;;;;;;5.93;4.65;;;;;;;19.35;100.00;96089.81;1030179;28;20096;-71
2022/07/21 00:03:32;;;;;;;6.65;4.35;;;;;;;19.35;100.00;96090.63;1026288;28;20696;-71
2022/07/21 00:04:02;;;;;;;6.25;4.40;;;;;;;19.32;100.00;96091.22;1025991;28;20043;-71
2022/07/21 00:04:33;;;;;;;4.93;3.90;;;;;;;19.29;100.00;96074.00;1026265;28;20034;-70
2022/07/21 00:05:04;;;;;;;5.35;4.22;;;;;;;19.29;100.00;96078.53;1026176;28;20026;-72
2022/07/21 00:05:34;;;;;;;4.88;4.38;;;;;;;19.30;100.00;96077.44;1030371;28;20064;-71
2022/07/21 00:06:05;;;;;;;4.90;4.45;;;;;;;19.30;100.00;96077.44;1026211;28;20035;-70
2022/07/21 00:06:36;;;;;;;7.95;4.25;;;;;;;19.27;100.00;96072.75;1022464;28;20082;-72
2022/07/21 00:07:06;;;;;;;5.75;4.80;;;;;;;19.26;100.00;96073.84;1025929;28;20042;-70
2022/07/21 00:07:37;;;;;;;6.43;4.25;;;;;;;19.23;100.00;96069.13;1026089;28;20098;-71
2022/07/21 00:08:07;;;;;;;7.05;4.10;;;;;;;19.23;100.00;96071.78;1030278;28;20034;-70
2022/07/21 00:08:37;;;;;;;5.25;4.20;;;;;;;19.22;100.00;96078.22;1034265;28;20503;-72
2022/07/21 00:09:09;;;;;;;6.70;4.32;;;;;;;19.20;100.00;96080.38;1025146;28;20027;-71
2022/07/21 00:09:39;;;;;;;6.97;4.55;;;;;;;19.17;100.00;96079.13;1022449;28;20019;-71
2022/07/21 00:10:10;;;;;;;5.13;4.63;;;;;;;19.18;100.00;96083.38;1026459;28;20031;-72
2022/07/21 00:10:40;;;;;;;5.95;4.55;;;;;;;19.14;100.00;96078.97;1026477;28;20027;-71
2022/07/21 00:11:14;;;;;;;5.97;4.32;;;;;;;19.18;100.00;96086.03;1033320;28;20119;-70
2022/07/21 00:11:44;;;;;;;7.68;4.72;;;;;;;19.18;100.00;96082.56;1030031;28;20053;-71
2022/07/21 00:12:15;;;;;;;5.85;4.80;;;;;;;19.19;100.00;96089.47;1031002;28;20033;-71
2022/07/21 00:12:45;;;;;;;4.88;4.47;;;;;;;19.18;100.00;96079.91;1038179;28;20501;-71
2022/07/21 00:13:16;;;;;;;7.70;4.57;;;;;;;19.19;100.00;96086.81;1037027;28;20029;-71
2022/07/21 00:13:46;;;;;;;5.72;4.68;;;;;;;19.15;100.00;96086.66;1030302;28;20112;-72
2022/07/21 00:14:17;;;;;;;6.60;5.00;;;;;;;19.17;100.00;96089.78;1030264;28;20010;-71
2022/07/21 00:14:47;;;;;;;8.15;4.68;;;;;;;19.17;100.00;96092.44;1030179;28;20018;-70
2022/07/21 00:15:19;;;;;;;5.72;4.53;;;;;;;19.17;100.00;96099.63;1030165;28;20510;-71
2022/07/21 00:15:49;;;;;;;9.82;5.38;;;;;;;19.17;100.00;96104.94;1030578;28;20034;-72
2022/07/21 00:16:20;;;;;;;13.40;5.35;;;;;;;19.14;100.00;96105.56;1030715;28;20022;-72
2022/07/21 00:16:50;;;;;;;9.02;5.90;;;;;;;19.05;100.00;96098.34;1034481;28;20487;-71
2022/07/21 00:17:21;;;;;;;7.30;4.30;;;;;;;19.12;100.00;96108.53;1034001;28;20018;-70
2022/07/21 00:17:51;;;;;;;6.57;4.40;;;;;;;19.13;100.00;96109.31;1034535;28;20081;-71
2022/07/21 00:18:22;;;;;;;9.43;5.03;;;;;;;19.11;100.00;96114.16;1034095;28;20522;-72
2022/07/21 00:18:53;;;;;;;5.53;4.90;;;;;;;19.11;100.00;96119.47;1026540;28;20023;-72
2022/07/21 00:19:23;;;;;;;9.10;4.70;;;;;;;18.99;100.00;96098.78;1034182;28;20029;-70
2022/07/21 00:19:54;;;;;;;11.55;4.80;;;;;;;19.11;100.00;96108.84;1026125;28;20118;-71
2022/07/21 00:20:24;;;;;;;5.47;4.70;;;;;;;19.18;100.00;96120.63;1030214;28;20067;-71
2022/07/21 00:20:55;;;;;;;5.15;4.60;;;;;;;19.18;100.00;96122.47;1026339;28;20047;-72
2022/07/21 00:21:29;;;;;;;5.93;4.70;;;;;;;19.12;100.00;96121.06;1025439;28;20030;-72
2022/07/21 00:22:02;;;;;;;5.18;4.68;;;;;;;19.13;100.00;96134.03;1027807;28;20097;-71
2022/07/21 00:22:33;;;;;;;8.77;4.88;;;;;;;19.10;100.00;96139.19;1035303;28;20029;-70
2022/07/21 00:23:03;;;;;;;6.25;4.68;;;;;;;19.07;100.00;96133.38;1030211;28;20169;-71
2022/07/21 00:23:34;;;;;;;6.70;4.90;;;;;;;19.04;100.00;96139.31;1026417;28;20035;-70
2022/07/21 00:24:05;;;;;;;5.97;4.55;;;;;;;19.04;100.00;96143.84;1026344;28;20022;-71
2022/07/21 00:24:35;;;;;;;5.97;4.55;;;;;;;19.01;100.00;96142.63;1030322;28;20023;-71
2022/07/21 00:25:06;;;;;;;5.43;4.60;;;;;;;18.97;100.00;96138.97;1034088;28;20267;-70
2022/07/21 00:25:37;;;;;;;5.03;4.53;;;;;;;18.94;100.00;96139.59;1034146;28;20036;-73
2022/07/21 00:26:07;;;;;;;5.82;4.55;;;;;;;19.01;100.00;96150.59;1038434;28;20048;-70
2022/07/21 00:26:41;;;;;;;5.38;4.88;;;;;;;19.00;100.00;96145.56;1037675;28;20033;-71
2022/07/21 00:27:12;;;;;;;6.03;4.75;;;;;;;18.98;100.00;96156.53;1039130;28;20097;-70
2022/07/21 00:27:42;;;;;;;6.13;4.65;;;;;;;18.94;100.00;96139.59;1038318;28;20025;-70
2022/07/21 00:28:13;;;;;;;6.00;4.90;;;;;;;18.97;100.00;96154.16;1030180;28;20022;-71
2022/07/21 00:28:43;;;;;;;7.22;4.40;;;;;;;18.98;100.00;96158.38;1030180;28;20379;-71
2022/07/21 00:29:14;;;;;;;5.47;4.60;;;;;;;18.97;100.00;96154.94;1030405;28;20023;-70
2022/07/21 00:29:44;;;;;;;8.20;5.00;;;;;;;19.00;100.00;96166.84;1034148;28;20021;-71
2022/07/21 00:30:15;;;;;;;6.07;4.10;;;;;;;18.97;100.00;96164.78;1038146;28;20022;-70
2022/07/21 00:30:45;;;;;;;11.45;4.93;;;;;;;18.91;100.00;96158.81;1030251;28;20704;-71
2022/07/21 00:31:16;;;;;;;6.82;4.97;;;;;;;18.98;100.00;96172.47;1025531;28;20622;-70
2022/07/21 00:31:46;;;;;;;8.80;4.68;;;;;;;18.97;100.00;96176.22;1026140;28;20026;-71
2022/07/21 00:32:17;;;;;;;6.03;4.85;;;;;;;18.95;100.00;96173.09;1026120;28;20054;-71
2022/07/21 00:32:47;;;;;;;8.90;5.00;;;;;;;18.95;100.00;96181.06;1022079;28;20019;-70
2022/07/21 00:33:18;;;;;;;5.65;4.50;;;;;;;18.95;100.00;96173.09;1025808;28;20046;-71
2022/07/21 00:33:50;;;;;;;4.75;4.25;;;;;;;18.95;100.00;96181.06;1025819;28;20130;-70
2022/07/21 00:34:21;;;;;;;6.68;4.03;;;;;;;18.93;100.00;96177.91;1022519;28;20038;-70
2022/07/21 00:34:51;;;;;;;4.63;4.13;;;;;;;18.97;100.00;96188.72;1022276;28;20115;-71
2022/07/21 00:35:22;;;;;;;5.18;4.68;;;;;;;18.97;100.00;96181.53;1026178;28;20054;-71
2022/07/21 00:35:52;;;;;;;4.75;4.05;;;;;;;18.98;100.00;96185.78;1030373;28;20026;-71
2022/07/21 00:36:23;;;;;;;5.72;4.47;;;;;;;18.98;100.00;96185.78;1034133;28;20030;-71
2022/07/21 00:36:53;;;;;;;8.05;4.70;;;;;;;19.00;100.00;96191.56;1042367;28;20151;-72
2022/07/21 00:37:24;;;;;;;6.03;4.43;;;;;;;19.00;100.00;96183.59;1038048;28;20025;-71
2022/07/21 00:37:54;;;;;;;4.47;4.07;;;;;;;18.99;100.00;96195.31;1038238;28;20124;-71
2022/07/21 00:38:25;;;;;;;4.72;4.32;;;;;;;18.94;100.00;96184.78;1038056;28;20034;-70
2022/07/21 00:38:55;;;;;;;5.43;4.57;;;;;;;19.00;100.00;96190.78;1030275;28;20555;-71
2022/07/21 00:39:25;;;;;;;5.45;4.55;;;;;;;19.00;100.00;96196.09;1034402;28;20116;-70
2022/07/21 00:39:56;;;;;;;6.25;4.60;;;;;;;18.99;100.00;96200.66;1030284;28;20755;-69
2022/07/21 00:40:26;;;;;;;10.15;4.05;;;;;;;18.98;100.00;96196.41;1030095;28;20061;-72
2022/07/21 00:40:57;;;;;;;6.70;4.40;;;;;;;19.02;100.00;96199.25;1030203;28;20133;-71
2022/07/21 00:41:27;;;;;;;4.75;3.85;;;;;;;19.00;100.00;96196.88;1025531;28;20027;-71
2022/07/21 00:41:58;;;;;;;7.18;4.60;;;;;;;18.99;100.00;96200.66;1030319;28;20069;-72
2022/07/21 00:42:29;;;;;;;5.65;4.40;;;;;;;18.96;100.00;96201.25;1034323;28;20026;-68
2022/07/21 00:43:00;;;;;;;6.40;4.30;;;;;;;18.98;100.00;96201.75;1034441;28;20101;-72
2022/07/21 00:43:30;;;;;;;5.72;4.10;;;;;;;18.98;100.00;96204.41;1029989;28;20089;-71
2022/07/21 00:44:01;;;;;;;5.90;4.68;;;;;;;18.98;100.00;96204.41;1025915;28;20061;-73
2022/07/21 00:44:31;;;;;;;4.88;4.25;;;;;;;18.97;100.00;96208.13;1026378;28;20075;-72
2022/07/21 00:45:03;;;;;;;6.50;4.45;;;;;;;18.89;100.00;96195.59;1030460;28;20023;-72
2022/07/21 00:45:34;;;;;;;5.32;4.20;;;;;;;18.95;100.00;96204.22;1030462;28;20030;-72
2022/07/21 00:46:04;;;;;;;5.80;4.50;;;;;;;18.92;100.00;96200.28;1034403;28;20497;-71
2022/07/21 00:46:35;;;;;;;6.13;4.28;;;;;;;18.91;100.00;96197.91;1034326;28;20046;-73
2022/07/21 00:47:05;;;;;;;5.30;4.20;;;;;;;18.85;100.00;96199.94;1038507;28;20077;-72
2022/07/21 00:47:36;;;;;;;5.30;4.80;;;;;;;18.82;100.00;96185.38;1042304;28;20025;-72
2022/07/21 00:48:06;;;;;;;5.85;4.20;;;;;;;18.92;100.00;96210.94;1034382;28;20066;-72
2022/07/21 00:48:37;;;;;;;4.63;4.15;;;;;;;18.90;100.00;96205.13;1030148;28;20105;-72
2022/07/21 00:49:07;;;;;;;6.85;3.70;;;;;;;18.87;100.00;96203.06;1026375;28;20026;-72
2022/07/21 00:49:38;;;;;;;5.38;4.15;;;;;;;18.86;100.00;96206.81;1031019;28;20081;-72
2022/07/21 00:50:11;;;;;;;5.70;4.30;;;;;;;18.84;100.00;96198.34;1035109;28;20751;-72
2022/07/21 00:50:44;;;;;;;4.50;4.00;;;;;;;18.78;100.00;96186.28;1029784;28;20512;-71
2022/07/21 00:51:17;;;;;;;5.05;3.47;;;;;;;18.83;100.00;96192.25;1030127;28;20030;-71
2022/07/21 00:51:48;;;;;;;5.50;4.10;;;;;;;18.84;100.00;96198.34;1032021;28;20069;-72
2022/07/21 00:52:18;;;;;;;5.13;4.00;;;;;;;18.86;100.00;96193.53;1036520;28;20815;-72
2022/07/21 00:52:49;;;;;;;4.05;3.70;;;;;;;18.84;100.00;96187.72;1039387;28;20105;-72
2022/07/21 00:53:20;;;;;;;6.72;4.47;;;;;;;18.83;100.00;96186.16;1033147;28;20030;-69
2022/07/21 00:53:50;;;;;;;4.82;3.83;;;;;;;18.83;100.00;96183.50;1030699;28;20023;-72
2022/07/21 00:54:21;;;;;;;6.00;3.75;;;;;;;18.87;100.00;96189.00;1026892;28;20732;-71
2022/07/21 00:54:51;;;;;;;4.38;3.97;;;;;;;18.86;100.00;96188.22;1026935;28;20023;-71
2022/07/21 00:55:22;;;;;;;4.25;3.80;;;;;;;18.85;100.00;96186.66;1034954;28;20697;-70
2022/07/21 00:55:53;;;;;;;4.15;3.72;;;;;;;18.80;100.00;96184.88;1030808;28;20584;-71
2022/07/21 00:56:23;;;;;;;5.53;3.85;;;;;;;18.79;100.00;96179.88;1028463;28;20705;-71
2022/07/21 00:56:54;;;;;;;4.20;3.80;;;;;;;18.83;100.00;96184.28;1022858;29;20117;-71
2022/07/21 00:57:25;;;;;;;7.40;3.85;;;;;;;18.84;100.00;96187.72;1022895;29;20030;-71
2022/07/21 00:57:55;;;;;;;4.28;3.85;;;;;;;18.85;100.00;96181.34;1027041;28;20046;-74
2022/07/21 00:58:26;;;;;;;5.07;3.50;;;;;;;18.83;100.00;96180.84;1027177;28;20038;-71
2022/07/21 00:58:56;;;;;;;7.40;3.88;;;;;;;18.84;100.00;96182.41;1030113;28;20049;-72
2022/07/21 00:59:27;;;;;;;7.10;3.85;;;;;;;18.80;100.00;96176.91;1031122;28;20045;-71
2022/07/21 00:59:57;;;;;;;5.40;4.20;;;;;;;18.84;100.00;96187.72;1023152;28;20730;-71
2022/07/21 01:00:28;;;;;;;5.15;4.15;;;;;;;18.83;100.00;96186.16;1022705;28;20099;-69
2022/07/21 01:00:58;;;;;;;4.13;3.60;;;;;;;18.80;100.00;96181.44;1025921;28;20023;-72
2022/07/21 01:01:29;;;;;;;3.95;3.63;;;;;;;18.81;100.00;96183.81;1026539;28;20096;-71
2022/07/21 01:01:59;;;;;;;4.25;3.85;;;;;;;18.82;100.00;96184.59;1031055;28;20023;-73
2022/07/21 01:02:31;;;;;;;5.35;4.13;;;;;;;18.80;100.00;96184.09;1032937;28;20029;-71
2022/07/21 01:03:05;;;;;;;4.40;4.00;;;;;;;18.79;100.00;96191.28;1030852;28;20023;-73
2022/07/21 01:03:37;;;;;;;5.22;4.05;;;;;;;18.80;100.00;96186.75;1019808;28;20579;-71
2022/07/21 01:04:07;;;;;;;4.90;3.60;;;;;;;18.78;100.00;96186.28;1029615;28;20089;-70
2022/07/21 01:04:38;;;;;;;4.95;3.97;;;;;;;18.75;100.00;96184.25;1034718;28;20087;-70
2022/07/21 01:05:14;;;;;;;5.07;4.10;;;;;;;18.75;100.00;96187.69;1036294;28;20033;-71
2022/07/21 01:05:45;;;;;;;5.43;3.78;;;;;;;18.61;100.00;96166.47;1034787;28;20018;-71
2022/07/21 01:06:15;;;;;;;6.40;4.18;;;;;;;18.74;100.00;96193.28;1031040;28;20046;-71
2022/07/21 01:06:45;;;;;;;4.60;3.90;;;;;;;18.76;100.00;96188.47;1027923;28;20027;-72
2022/07/21 01:07:16;;;;;;;5.88;3.72;;;;;;;18.75;100.00;96194.88;1028294;28;20022;-73
2022/07/21 01:07:48;;;;;;;6.63;4.28;;;;;;;18.71;100.00;96183.22;1030807;28;20524;-71
2022/07/21 01:08:18;;;;;;;6.32;4.22;;;;;;;18.74;100.00;96194.06;1027108;28;20015;-72
2022/07/21 01:08:50;;;;;;;5.25;4.05;;;;;;;18.67;100.00;96182.25;1030982;28;20103;-72
2022/07/21 01:09:21;;;;;;;5.85;4.25;;;;;;;18.70;100.00;96192.28;1026692;28;20034;-72
2022/07/21 01:09:51;;;;;;;5.15;3.70;;;;;;;18.65;100.00;96179.16;1020059;29;20028;-73
2022/07/21 01:10:23;;;;;;;4.53;4.13;;;;;;;18.66;100.00;96178.06;1023055;28;20054;-72
2022/07/21 01:10:53;;;;;;;5.85;3.72;;;;;;;18.69;100.00;96185.41;1026571;28;20743;-71
2022/07/21 01:11:24;;;;;;;5.88;3.97;;;;;;;18.68;100.00;96178.50;1023136;28;20030;-72
2022/07/21 01:11:55;;;;;;;4.85;4.05;;;;;;;18.68;100.00;96178.50;1026637;28;20907;-71
2022/07/21 01:12:25;;;;;;;4.40;3.85;;;;;;;18.68;100.00;96179.31;1027032;28;20106;-72
2022/07/21 01:12:56;;;;;;;6.30;4.10;;;;;;;18.68;100.00;96183.81;1026999;28;20027;-72
2022/07/21 01:13:26;;;;;;;6.22;4.13;;;;;;;18.64;100.00;96174.91;1026833;28;20081;-71
2022/07/21 01:13:59;;;;;;;5.13;3.83;;;;;;;18.66;100.00;96173.50;1026591;28;20050;-71
2022/07/21 01:14:30;;;;;;;7.35;4.30;;;;;;;18.67;100.00;96179.59;1030916;28;20018;-71
2022/07/21 01:15:00;;;;;;;4.40;3.83;;;;;;;18.70;100.00;96184.31;1026793;28;20505;-70
2022/07/21 01:15:31;;;;;;;5.25;4.22;;;;;;;18.66;100.00;96180.72;1026881;28;20109;-71
2022/07/21 01:16:01;;;;;;;4.60;4.20;;;;;;;18.70;100.00;96189.63;1022779;29;20582;-71
2022/07/21 01:16:32;;;;;;;4.57;4.18;;;;;;;18.69;100.00;96185.41;1022864;28;20026;-71
2022/07/21 01:17:02;;;;;;;6.88;3.65;;;;;;;18.69;100.00;96196.06;1022954;28;20023;-68
2022/07/21 01:17:33;;;;;;;4.72;4.32;;;;;;;18.68;100.00;96189.97;1023030;28;20031;-71
2022/07/21 01:18:03;;;;;;;6.05;4.47;;;;;;;18.66;100.00;96180.72;1022784;28;20118;-70
2022/07/21 01:18:34;;;;;;;5.88;4.10;;;;;;;18.70;100.00;96193.06;1023128;28;20743;-72
2022/07/21 01:19:05;;;;;;;6.40;4.30;;;;;;;18.67;100.00;96183.03;1022993;28;20075;-70
2022/07/21 01:19:39;;;;;;;7.07;4.25;;;;;;;18.71;100.00;96193.84;1023342;28;20034;-72
2022/07/21 01:20:15;;;;;;;5.68;4.53;;;;;;;18.71;100.00;96193.84;1019705;29;20023;-71
2022/07/21 01:20:45;;;;;;;5.05;4.28;;;;;;;18.72;100.00;96184.84;1021435;28;20035;-71
2022/07/21 01:21:37;;;;;;;5.13;4.38;;;;;;;18.70;100.00;96193.06;1030037;28;20018;-71
2022/07/21 01:22:07;;;;;;;8.63;4.30;;;;;;;18.54;100.00;96166.09;1030751;28;20026;-71
2022/07/21 01:22:39;;;;;;;10.98;4.88;;;;;;;18.70;100.00;96189.63;1026790;28;20042;-71
2022/07/21 01:23:10;;;;;;;4.85;4.35;;;;;;;18.61;100.00;96181.59;1022122;28;20023;-72
2022/07/21 01:23:40;;;;;;;5.20;4.40;;;;;;;18.71;100.00;96202.66;1019131;29;20088;-71
2022/07/21 01:24:11;;;;;;;4.93;4.43;;;;;;;18.70;100.00;96192.28;1023157;28;20027;-71
2022/07/21 01:24:41;;;;;;;4.93;4.43;;;;;;;18.70;100.00;96187.75;1023011;28;20108;-71
2022/07/21 01:25:12;;;;;;;5.13;4.53;;;;;;;18.70;100.00;96190.41;1032908;28;20448;-71
2022/07/21 01:25:49;;;;;;;5.30;4.40;;;;;;;18.74;100.00;96198.59;1034817;28;20664;-71
2022/07/21 01:26:19;;;;;;;6.78;4.30;;;;;;;18.73;100.00;96203.13;1031342;28;20084;-71
2022/07/21 01:26:51;;;;;;;5.20;4.70;;;;;;;18.72;100.00;96192.81;1028144;28;20018;-71
2022/07/21 01:27:25;;;;;;;5.00;4.50;;;;;;;18.74;100.00;96203.91;1030843;28;20525;-71
2022/07/21 01:27:55;;;;;;;5.05;4.55;;;;;;;18.72;100.00;96196.25;1027420;28;20055;-71
2022/07/21 01:28:26;;;;;;;5.65;4.03;;;;;;;18.73;100.00;96202.34;1031248;28;20049;-72
2022/07/21 01:28:57;;;;;;;7.43;4.82;;;;;;;18.72;100.00;96196.25;1027252;28;20020;-72
2022/07/21 01:29:27;;;;;;;5.28;4.70;;;;;;;18.74;100.00;96201.25;1026493;28;20113;-70
2022/07/21 01:29:58;;;;;;;4.78;4.25;;;;;;;18.64;100.00;96193.50;1026705;28;20433;-70
2022/07/21 01:30:28;;;;;;;5.30;4.80;;;;;;;18.72;100.00;96200.78;1026635;28;20107;-72
2022/07/21 01:30:59;;;;;;;4.88;4.30;;;;;;;18.73;100.00;96197.03;1030907;28;20037;-71
2022/07/21 01:31:29;;;;;;;5.22;4.72;;;;;;;18.74;100.00;96196.72;1034120;28;20070;-71
2022/07/21 01:32:00;;;;;;;5.03;4.53;;;;;;;18.74;100.00;96201.25;1030854;28;20053;-71
2022/07/21 01:32:30;;;;;;;5.00;4.50;;;;;;;18.74;100.00;96196.72;1034758;28;20022;-72
2022/07/21 01:33:01;;;;;;;4.70;4.20;;;;;;;18.77;100.00;96198.00;1034977;28;20111;-71
2022/07/21 01:33:31;;;;;;;5.75;4.53;;;;;;;18.70;100.00;96186.97;1038819;28;20021;-72
2022/07/21 01:34:02;;;;;;;7.53;4.70;;;;;;;18.70;100.00;96182.44;1034906;28;20029;-71
2022/07/21 01:34:32;;;;;;;5.55;4.43;;;;;;;18.78;100.00;96191.63;1034719;28;20165;-71
2022/07/21 01:35:07;;;;;;;7.03;4.63;;;;;;;18.73;100.00;96183.75;1030677;28;20022;-71
2022/07/21 01:35:38;;;;;;;6.13;5.07;;;;;;;18.75;100.00;96186.91;1027619;28;20031;-71
2022/07/21 01:36:08;;;;;;;5.78;4.30;;;;;;;18.73;100.00;96183.75;1032162;28;20026;-70
2022/07/21 01:36:39;;;;;;;4.93;4.25;;;;;;;18.78;100.00;96186.28;1031373;28;20027;-72
2022/07/21 01:37:09;;;;;;;6.43;4.30;;;;;;;18.76;100.00;96175.94;1026897;28;20662;-71
2022/07/21 01:37:44;;;;;;;5.15;4.65;;;;;;;18.80;100.00;96186.75;1026559;28;20216;-71
2022/07/21 01:41:33;;;;;;;6.25;4.47;;;;;;;18.70;100.00;96174.47;1032874;28;20033;-70
2022/07/21 01:42:03;;;;;;;5.60;4.63;;;;;;;18.70;100.00;96173.69;1030906;28;20018;-72
2022/07/21 01:42:34;;;;;;;6.35;5.22;;;;;;;18.75;100.00;96184.25;1030673;28;20030;-70
2022/07/21 01:43:04;;;;;;;5.90;4.90;;;;;;;18.73;100.00;96179.22;1030704;28;20522;-71
2022/07/21 01:43:35;;;;;;;6.57;4.82;;;;;;;18.74;100.00;96180.00;1026321;28;20034;-71
2022/07/21 01:44:06;;;;;;;6.85;4.85;;;;;;;18.69;100.00;96174.78;1030431;28;20079;-72
2022/07/21 01:44:37;;;;;;;5.47;4.70;;;;;;;18.75;100.00;96174.38;1030573;28;20650;-70
2022/07/21 01:45:08;;;;;;;10.57;4.95;;;;;;;18.70;100.00;96165.72;1026493;28;20019;-72
2022/07/21 01:45:40;;;;;;;4.90;4.40;;;;;;;18.73;100.00;96170.47;1038164;28;20421;-71
2022/07/21 01:46:12;;;;;;;7.60;4.68;;;;;;;18.78;100.00;96178.31;1031848;28;20018;-72
2022/07/21 01:46:47;;;;;;;5.22;4.72;;;;;;;18.73;100.00;96165.13;1026623;28;20015;-70
2022/07/21 01:47:20;;;;;;;5.80;4.88;;;;;;;18.78;100.00;96173.00;1030443;28;20475;-70
2022/07/21 01:47:50;;;;;;;4.60;4.20;;;;;;;18.71;100.00;96170.75;1036108;28;20077;-71
2022/07/21 01:48:21;;;;;;;8.15;4.75;;;;;;;18.77;100.00;96187.38;1028001;28;20067;-70
2022/07/21 01:48:51;;;;;;;7.03;5.13;;;;;;;18.76;100.00;96185.81;1030938;28;20022;-72
2022/07/21 01:49:22;;;;;;;6.38;4.93;;;;;;;18.80;100.00;96181.44;1030404;28;20445;-71
2022/07/21 01:49:52;;;;;;;7.20;4.70;;;;;;;18.77;100.00;96187.38;1022862;28;20026;-71
2022/07/21 01:50:26;;;;;;;5.22;4.72;;;;;;;18.76;100.00;96186.59;1030721;28;20437;-71
2022/07/21 01:50:56;;;;;;;5.13;4.63;;;;;;;18.83;100.00;96186.16;1026660;28;20018;-71
2022/07/21 01:51:27;;;;;;;6.00;4.50;;;;;;;18.78;100.00;96175.66;1026918;28;20509;-70
2022/07/21 01:51:57;;;;;;;8.85;5.13;;;;;;;18.84;100.00;96182.41;1026835;28;20033;-71
2022/07/21 01:52:28;;;;;;;4.80;4.28;;;;;;;18.84;100.00;96187.72;1027133;28;20022;-71
2022/07/21 01:52:58;;;;;;;7.97;5.15;;;;;;;18.85;100.00;96181.34;1030691;28;20022;-72
2022/07/21 01:53:29;;;;;;;7.45;4.95;;;;;;;18.85;100.00;96178.66;1025860;28;20038;-71
2022/07/21 01:53:59;;;;;;;6.53;4.80;;;;;;;18.81;100.00;96175.03;1029735;28;20088;-71
2022/07/21 01:54:30;;;;;;;6.32;4.70;;;;;;;18.89;100.00;96187.59;1030407;28;20027;-71
2022/07/21 01:55:00;;;;;;;4.90;4.38;;;;;;;18.90;100.00;96185.72;1026404;28;20062;-71
2022/07/21 01:55:32;;;;;;;5.45;4.70;;;;;;;18.91;100.00;96182.75;1026812;28;20110;-71
2022/07/21 01:56:06;;;;;;;5.00;4.50;;;;;;;18.89;100.00;96179.63;1030907;28;20061;-72
2022/07/21 01:56:37;;;;;;;7.55;4.95;;;;;;;18.93;100.00;96185.91;1031403;28;20030;-71
2022/07/21 01:57:08;;;;;;;5.82;5.03;;;;;;;18.96;100.00;96189.84;1026698;28;20098;-72
2022/07/21 01:57:39;;;;;;;5.75;4.63;;;;;;;18.95;100.00;96183.72;1022509;28;20416;-71
2022/07/21 01:58:09;;;;;;;6.47;4.70;;;;;;;18.96;100.00;96189.84;1026468;28;20033;-73
2022/07/21 01:58:40;;;;;;;8.27;5.18;;;;;;;18.95;100.00;96189.06;1030721;28;20042;-71
2022/07/21 01:59:10;;;;;;;7.10;5.07;;;;;;;18.94;100.00;96190.13;1038736;28;20033;-72
2022/07/21 01:59:40;;;;;;;6.57;5.53;;;;;;;18.90;100.00;96178.53;1034481;28;20026;-71
2022/07/21 02:00:11;;;;;;;6.78;5.22;;;;;;;18.96;100.00;96190.63;1026695;28;20085;-72
2022/07/21 02:00:42;;;;;;;6.78;4.78;;;;;;;18.96;100.00;96187.94;1027811;28;20039;-70
2022/07/21 02:01:12;;;;;;;5.28;4.78;;;;;;;18.97;100.00;96192.16;1029836;28;20058;-70
2022/07/21 02:01:43;;;;;;;8.43;4.85;;;;;;;18.98;100.00;96192.94;1034638;28;20029;-71
2022/07/21 02:02:13;;;;;;;7.22;4.82;;;;;;;18.95;100.00;96188.28;1038844;28;20065;-71
2022/07/21 02:02:43;;;;;;;5.38;4.88;;;;;;;19.00;100.00;96194.22;1026577;28;20232;-72
2022/07/21 02:03:14;;;;;;;5.45;4.95;;;;;;;19.00;100.00;96194.22;1026604;28;20046;-72
2022/07/21 02:03:45;;;;;;;5.35;4.72;;;;;;;18.99;100.00;96186.56;1022573;28;20035;-72
2022/07/21 02:04:15;;;;;;;9.07;5.05;;;;;;;18.94;100.00;96179.47;1026841;28;20110;-72
2022/07/21 02:04:47;;;;;;;5.95;4.95;;;;;;;19.01;100.00;96187.03;1028525;28;20049;-72
2022/07/21 02:05:17;;;;;;;7.57;5.32;;;;;;;19.02;100.00;96194.72;1027345;28;20528;-74
2022/07/21 02:05:48;;;;;;;12.98;5.28;;;;;;;19.05;100.00;96196.78;1035876;28;20030;-72
2022/07/21 02:06:18;;;;;;;8.20;5.10;;;;;;;19.02;100.00;96194.72;1031216;28;20025;-71
2022/07/21 02:06:49;;;;;;;5.72;5.10;;;;;;;19.00;100.00;96196.88;1026578;28;20085;-71
2022/07/21 02:07:19;;;;;;;6.28;5.20;;;;;;;18.95;100.00;96189.06;1026228;28;20035;-73
2022/07/21 02:07:50;;;;;;;6.20;5.22;;;;;;;18.99;100.00;96190.00;1022300;28;20030;-72
2022/07/21 02:08:20;;;;;;;5.35;4.85;;;;;;;19.00;100.00;96193.44;1022819;28;20050;-72
2022/07/21 02:08:51;;;;;;;5.25;4.75;;;;;;;18.94;100.00;96190.13;1026459;28;20599;-72
2022/07/21 02:09:21;;;;;;;5.95;4.88;;;;;;;18.96;100.00;96195.16;1026436;28;20034;-71
2022/07/21 02:09:52;;;;;;;6.15;4.68;;;;;;;18.95;100.00;96186.38;1030643;28;20063;-72
2022/07/21 02:10:22;;;;;;;6.13;5.53;;;;;;;18.95;100.00;96196.25;1034858;28;20478;-71
2022/07/21 02:10:53;;;;;;;5.38;4.88;;;;;;;18.95;100.00;96199.69;1038841;28;20084;-69
2022/07/21 02:11:23;;;;;;;5.53;4.80;;;;;;;18.95;100.00;96201.56;1035089;28;20579;-72
2022/07/21 02:11:54;;;;;;;5.97;5.38;;;;;;;18.91;100.00;96198.69;1034582;28;20065;-73
2022/07/21 02:12:27;;;;;;;5.70;5.18;;;;;;;18.94;100.00;96211.41;1030449;28;20462;-70
2022/07/21 02:12:58;;;;;;;7.53;5.70;;;;;;;18.93;100.00;96201.06;1030630;28;20034;-73
2022/07/21 02:13:28;;;;;;;8.27;5.63;;;;;;;18.94;100.00;96202.63;1035064;28;20390;-71
2022/07/21 02:13:59;;;;;;;5.72;4.90;;;;;;;18.94;100.00;96208.72;1030932;28;20034;-71
2022/07/21 02:14:29;;;;;;;7.45;5.53;;;;;;;18.95;100.00;96201.56;1030782;28;20057;-72
2022/07/21 02:15:00;;;;;;;6.40;5.15;;;;;;;18.86;100.00;96203.38;1030461;28;20052;-71
2022/07/21 02:15:30;;;;;;;5.97;5.35;;;;;;;18.83;100.00;96189.59;1030825;28;20133;-72
2022/07/21 02:16:01;;;;;;;6.97;5.05;;;;;;;18.83;100.00;96200.22;1034409;28;20037;-71
2022/07/21 02:16:32;;;;;;;5.65;5.15;;;;;;;18.90;100.00;96213.09;1034496;28;20129;-73
2022/07/21 02:17:05;;;;;;;9.02;5.28;;;;;;;18.83;100.00;96196.78;1030424;28;20534;-71
2022/07/21 02:17:38;;;;;;;8.07;5.47;;;;;;;18.89;100.00;96211.53;1030720;28;20034;-70
2022/07/21 02:18:09;;;;;;;6.80;5.15;;;;;;;18.90;100.00;96207.00;1031335;28;20520;-71
2022/07/21 02:18:40;;;;;;;7.25;5.18;;;;;;;18.91;100.00;96209.34;1031567;28;20031;-71
2022/07/21 02:19:10;;;;;;;5.93;5.38;;;;;;;18.91;100.00;96209.34;1031511;28;20477;-69
2022/07/21 02:19:41;;;;;;;6.70;6.03;;;;;;;18.90;100.00;96202.47;1032204;28;20033;-73
2022/07/21 02:20:11;;;;;;;7.50;5.80;;;;;;;18.84;100.00;96196.47;1027769;28;20210;-73
2022/07/21 02:20:42;;;;;;;7.20;5.55;;;;;;;18.86;100.00;96203.38;1028682;28;20026;-71
2022/07/21 02:21:12;;;;;;;6.80;5.65;;;;;;;18.87;100.00;96196.97;1029177;28;20030;-71
2022/07/21 02:21:43;;;;;;;5.75;5.18;;;;;;;18.93;100.00;96212.50;1034305;28;20029;-71
2022/07/21 02:22:13;;;;;;;7.32;5.63;;;;;;;18.92;100.00;96208.28;1034382;28;20041;-71
2022/07/21 02:22:45;;;;;;;9.02;5.97;;;;;;;18.91;100.00;96204.03;1034236;28;20030;-71
2022/07/21 02:23:15;;;;;;;8.85;5.80;;;;;;;18.86;100.00;96185.53;1034512;28;20116;-70
2022/07/21 02:23:46;;;;;;;6.10;5.47;;;;;;;18.94;100.00;96210.63;1038648;28;20562;-71
2022/07/21 02:24:16;;;;;;;6.20;5.60;;;;;;;18.95;100.00;96196.25;1026434;28;20026;-71
2022/07/21 02:24:47;;;;;;;9.40;6.22;;;;;;;18.95;100.00;96202.34;1030355;28;20030;-72
2022/07/21 02:25:18;;;;;;;7.28;5.82;;;;;;;18.91;100.00;96204.03;1026329;28;20037;-70
2022/07/21 02:25:48;;;;;;;7.07;6.28;;;;;;;18.89;100.00;96195.59;1026227;28;20152;-72
2022/07/21 02:26:19;;;;;;;7.03;5.88;;;;;;;18.96;100.00;96206.56;1026246;28;20033;-71
2022/07/21 02:26:49;;;;;;;7.32;5.57;;;;;;;18.96;100.00;96206.56;1025925;28;20114;-71
2022/07/21 02:27:20;;;;;;;6.47;5.88;;;;;;;18.91;100.00;96205.91;1026842;28;20026;-71